sensor_id;sensor_type;location;lat;lon;timestamp;P1;durP1;ratioP1;P2;durP2;ratioP2
83278;SDS011;73398;51.844;10.790;2024-01-07T00:01:00;18.73;;;9.70;;
83278;SDS011;73398;51.844;10.790;2024-01-07T00:03:27;21.45;;;10.65;;
83278;SDS011;73398;51.844;10.790;2024-01-07T00:05:53;20.70;;;9.45;;
83278;SDS011;73398;51.844;10.790;2024-01-07T00:08:18;20.83;;;10.15;;
83278;SDS011;73398;51.844;10.790;2024-01-07T00:10:46;18.50;;;9.20;;
83278;SDS011;73398;51.844;10.790;2024-01-07T00:13:11;20.90;;;9.48;;
83278;SDS011;73398;51.844;10.790;2024-01-07T00:15:37;18.23;;;9.93;;
83278;SDS011;73398;51.844;10.790;2024-01-07T00:18:03;18.48;;;9.32;;
83278;SDS011;73398;51.844;10.790;2024-01-07T00:20:29;22.92;;;10.02;;
83278;SDS011;73398;51.844;10.790;2024-01-07T00:22:55;20.42;;;9.80;;
83278;SDS011;73398;51.844;10.790;2024-01-07T00:25:21;18.45;;;9.07;;
83278;SDS011;73398;51.844;10.790;2024-01-07T00:27:47;20.40;;;10.50;;
83278;SDS011;73398;51.844;10.790;2024-01-07T00:30:15;18.60;;;10.20;;
83278;SDS011;73398;51.844;10.790;2024-01-07T00:32:41;17.40;;;8.82;;
83278;SDS011;73398;51.844;10.790;2024-01-07T00:35:07;19.65;;;8.98;;
83278;SDS011;73398;51.844;10.790;2024-01-07T00:37:33;19.90;;;10.02;;
83278;SDS011;73398;51.844;10.790;2024-01-07T00:40:00;16.27;;;9.40;;
83278;SDS011;73398;51.844;10.790;2024-01-07T00:42:26;16.83;;;9.02;;
83278;SDS011;73398;51.844;10.790;2024-01-07T00:44:51;15.30;;;9.75;;
83278;SDS011;73398;51.844;10.790;2024-01-07T00:47:17;20.42;;;9.15;;
83278;SDS011;73398;51.844;10.790;2024-01-07T00:49:43;17.55;;;8.48;;
83278;SDS011;73398;51.844;10.790;2024-01-07T00:52:09;18.02;;;9.18;;
83278;SDS011;73398;51.844;10.790;2024-01-07T00:54:35;18.05;;;9.70;;
83278;SDS011;73398;51.844;10.790;2024-01-07T00:57:02;19.27;;;9.73;;
83278;SDS011;73398;51.844;10.790;2024-01-07T00:59:28;15.23;;;8.85;;
83278;SDS011;73398;51.844;10.790;2024-01-07T01:01:54;16.23;;;8.75;;
83278;SDS011;73398;51.844;10.790;2024-01-07T01:04:21;15.70;;;8.00;;
83278;SDS011;73398;51.844;10.790;2024-01-07T01:06:47;15.15;;;8.80;;
83278;SDS011;73398;51.844;10.790;2024-01-07T01:09:12;17.35;;;9.40;;
83278;SDS011;73398;51.844;10.790;2024-01-07T01:11:38;17.65;;;9.20;;
83278;SDS011;73398;51.844;10.790;2024-01-07T01:14:04;13.57;;;7.90;;
83278;SDS011;73398;51.844;10.790;2024-01-07T01:16:30;19.23;;;9.75;;
83278;SDS011;73398;51.844;10.790;2024-01-07T01:18:56;18.63;;;9.80;;
83278;SDS011;73398;51.844;10.790;2024-01-07T01:21:22;20.23;;;9.15;;
83278;SDS011;73398;51.844;10.790;2024-01-07T01:23:48;17.88;;;9.30;;
83278;SDS011;73398;51.844;10.790;2024-01-07T01:26:14;17.00;;;8.93;;
83278;SDS011;73398;51.844;10.790;2024-01-07T01:28:40;19.02;;;9.70;;
83278;SDS011;73398;51.844;10.790;2024-01-07T01:31:06;19.25;;;9.93;;
83278;SDS011;73398;51.844;10.790;2024-01-07T01:33:32;21.63;;;9.88;;
83278;SDS011;73398;51.844;10.790;2024-01-07T01:35:58;19.30;;;8.52;;
83278;SDS011;73398;51.844;10.790;2024-01-07T01:38:24;18.30;;;8.60;;
83278;SDS011;73398;51.844;10.790;2024-01-07T01:40:53;15.63;;;8.45;;
83278;SDS011;73398;51.844;10.790;2024-01-07T01:43:23;13.27;;;7.93;;
83278;SDS011;73398;51.844;10.790;2024-01-07T01:45:49;14.63;;;8.20;;
83278;SDS011;73398;51.844;10.790;2024-01-07T01:48:15;16.23;;;8.77;;
83278;SDS011;73398;51.844;10.790;2024-01-07T01:50:41;16.80;;;8.57;;
83278;SDS011;73398;51.844;10.790;2024-01-07T01:53:07;14.38;;;8.38;;
83278;SDS011;73398;51.844;10.790;2024-01-07T01:55:33;16.95;;;9.38;;
83278;SDS011;73398;51.844;10.790;2024-01-07T01:57:59;15.90;;;8.32;;
83278;SDS011;73398;51.844;10.790;2024-01-07T02:00:29;15.65;;;8.30;;
83278;SDS011;73398;51.844;10.790;2024-01-07T02:02:54;16.27;;;8.77;;
83278;SDS011;73398;51.844;10.790;2024-01-07T02:05:21;17.88;;;9.70;;
83278;SDS011;73398;51.844;10.790;2024-01-07T02:07:47;18.63;;;8.85;;
83278;SDS011;73398;51.844;10.790;2024-01-07T02:10:13;13.45;;;7.07;;
83278;SDS011;73398;51.844;10.790;2024-01-07T02:12:39;13.48;;;7.88;;
83278;SDS011;73398;51.844;10.790;2024-01-07T02:15:05;13.38;;;7.30;;
83278;SDS011;73398;51.844;10.790;2024-01-07T02:17:31;16.52;;;7.97;;
83278;SDS011;73398;51.844;10.790;2024-01-07T02:19:57;12.45;;;7.22;;
83278;SDS011;73398;51.844;10.790;2024-01-07T02:22:23;13.00;;;7.18;;
83278;SDS011;73398;51.844;10.790;2024-01-07T02:24:49;12.30;;;6.13;;
83278;SDS011;73398;51.844;10.790;2024-01-07T02:27:15;11.35;;;6.43;;
83278;SDS011;73398;51.844;10.790;2024-01-07T02:29:41;13.65;;;6.75;;
83278;SDS011;73398;51.844;10.790;2024-01-07T02:32:07;10.88;;;6.28;;
83278;SDS011;73398;51.844;10.790;2024-01-07T02:34:32;12.57;;;6.30;;
83278;SDS011;73398;51.844;10.790;2024-01-07T02:36:58;13.73;;;6.45;;
83278;SDS011;73398;51.844;10.790;2024-01-07T02:39:24;11.38;;;6.53;;
83278;SDS011;73398;51.844;10.790;2024-01-07T02:41:51;14.00;;;6.35;;
83278;SDS011;73398;51.844;10.790;2024-01-07T02:44:17;12.73;;;7.72;;
83278;SDS011;73398;51.844;10.790;2024-01-07T02:46:43;12.48;;;6.70;;
83278;SDS011;73398;51.844;10.790;2024-01-07T02:49:11;15.05;;;7.43;;
83278;SDS011;73398;51.844;10.790;2024-01-07T02:51:37;12.45;;;6.53;;
83278;SDS011;73398;51.844;10.790;2024-01-07T02:54:03;11.25;;;6.53;;
83278;SDS011;73398;51.844;10.790;2024-01-07T02:56:29;13.05;;;5.85;;
83278;SDS011;73398;51.844;10.790;2024-01-07T02:58:55;10.70;;;6.20;;
83278;SDS011;73398;51.844;10.790;2024-01-07T03:01:21;9.18;;;5.45;;
83278;SDS011;73398;51.844;10.790;2024-01-07T03:03:48;12.32;;;6.22;;
83278;SDS011;73398;51.844;10.790;2024-01-07T03:06:14;10.07;;;5.82;;
83278;SDS011;73398;51.844;10.790;2024-01-07T03:08:40;11.93;;;6.30;;
83278;SDS011;73398;51.844;10.790;2024-01-07T03:11:06;8.93;;;5.55;;
83278;SDS011;73398;51.844;10.790;2024-01-07T03:13:32;8.55;;;5.03;;
83278;SDS011;73398;51.844;10.790;2024-01-07T03:15:58;8.18;;;5.60;;
83278;SDS011;73398;51.844;10.790;2024-01-07T03:18:24;8.52;;;4.75;;
83278;SDS011;73398;51.844;10.790;2024-01-07T03:20:50;8.35;;;4.95;;
83278;SDS011;73398;51.844;10.790;2024-01-07T03:23:16;9.50;;;4.78;;
83278;SDS011;73398;51.844;10.790;2024-01-07T03:25:43;8.82;;;5.18;;
83278;SDS011;73398;51.844;10.790;2024-01-07T03:28:09;11.50;;;5.13;;
83278;SDS011;73398;51.844;10.790;2024-01-07T03:30:35;7.82;;;4.55;;
83278;SDS011;73398;51.844;10.790;2024-01-07T03:33:01;12.35;;;5.50;;
83278;SDS011;73398;51.844;10.790;2024-01-07T03:35:27;7.82;;;5.05;;
83278;SDS011;73398;51.844;10.790;2024-01-07T03:37:53;8.70;;;5.25;;
83278;SDS011;73398;51.844;10.790;2024-01-07T03:40:19;9.75;;;4.63;;
83278;SDS011;73398;51.844;10.790;2024-01-07T03:42:45;7.63;;;5.03;;
83278;SDS011;73398;51.844;10.790;2024-01-07T03:45:10;6.97;;;4.75;;
83278;SDS011;73398;51.844;10.790;2024-01-07T03:47:36;10.18;;;5.03;;
83278;SDS011;73398;51.844;10.790;2024-01-07T03:50:02;9.93;;;4.50;;
83278;SDS011;73398;51.844;10.790;2024-01-07T03:52:28;10.05;;;4.25;;
83278;SDS011;73398;51.844;10.790;2024-01-07T03:54:54;9.00;;;5.10;;
83278;SDS011;73398;51.844;10.790;2024-01-07T03:57:20;8.13;;;5.05;;
83278;SDS011;73398;51.844;10.790;2024-01-07T03:59:46;9.13;;;5.07;;
83278;SDS011;73398;51.844;10.790;2024-01-07T04:02:12;7.28;;;4.70;;
83278;SDS011;73398;51.844;10.790;2024-01-07T04:04:41;7.03;;;4.45;;
83278;SDS011;73398;51.844;10.790;2024-01-07T04:07:07;8.38;;;4.97;;
83278;SDS011;73398;51.844;10.790;2024-01-07T04:09:33;7.43;;;4.10;;
83278;SDS011;73398;51.844;10.790;2024-01-07T04:11:58;10.57;;;4.80;;
83278;SDS011;73398;51.844;10.790;2024-01-07T04:14:24;9.48;;;4.50;;
83278;SDS011;73398;51.844;10.790;2024-01-07T04:16:52;8.00;;;4.25;;
83278;SDS011;73398;51.844;10.790;2024-01-07T04:19:18;8.82;;;4.85;;
83278;SDS011;73398;51.844;10.790;2024-01-07T04:21:47;5.28;;;3.72;;
83278;SDS011;73398;51.844;10.790;2024-01-07T04:24:13;6.90;;;4.32;;
83278;SDS011;73398;51.844;10.790;2024-01-07T04:26:39;8.57;;;4.97;;
83278;SDS011;73398;51.844;10.790;2024-01-07T04:29:05;9.07;;;4.20;;
83278;SDS011;73398;51.844;10.790;2024-01-07T04:31:31;7.43;;;4.50;;
83278;SDS011;73398;51.844;10.790;2024-01-07T04:33:57;8.52;;;4.97;;
83278;SDS011;73398;51.844;10.790;2024-01-07T04:36:23;9.65;;;4.97;;
83278;SDS011;73398;51.844;10.790;2024-01-07T04:38:49;8.20;;;4.70;;
83278;SDS011;73398;51.844;10.790;2024-01-07T04:41:15;7.22;;;4.22;;
83278;SDS011;73398;51.844;10.790;2024-01-07T04:43:42;9.25;;;5.10;;
83278;SDS011;73398;51.844;10.790;2024-01-07T04:46:08;7.65;;;4.30;;
83278;SDS011;73398;51.844;10.790;2024-01-07T04:48:35;11.10;;;4.40;;
83278;SDS011;73398;51.844;10.790;2024-01-07T04:51:01;6.32;;;4.32;;
83278;SDS011;73398;51.844;10.790;2024-01-07T04:53:27;9.00;;;4.90;;
83278;SDS011;73398;51.844;10.790;2024-01-07T04:55:53;9.18;;;5.57;;
83278;SDS011;73398;51.844;10.790;2024-01-07T04:58:19;7.68;;;4.57;;
83278;SDS011;73398;51.844;10.790;2024-01-07T05:00:45;7.35;;;4.80;;
83278;SDS011;73398;51.844;10.790;2024-01-07T05:03:11;7.32;;;4.60;;
83278;SDS011;73398;51.844;10.790;2024-01-07T05:05:37;6.97;;;4.47;;
83278;SDS011;73398;51.844;10.790;2024-01-07T05:08:03;8.15;;;4.45;;
83278;SDS011;73398;51.844;10.790;2024-01-07T05:10:29;8.18;;;4.75;;
83278;SDS011;73398;51.844;10.790;2024-01-07T05:12:55;7.90;;;4.65;;
83278;SDS011;73398;51.844;10.790;2024-01-07T05:15:21;8.48;;;4.10;;
83278;SDS011;73398;51.844;10.790;2024-01-07T05:17:47;6.60;;;4.05;;
83278;SDS011;73398;51.844;10.790;2024-01-07T05:20:14;7.25;;;3.60;;
83278;SDS011;73398;51.844;10.790;2024-01-07T05:22:41;8.55;;;3.70;;
83278;SDS011;73398;51.844;10.790;2024-01-07T05:25:07;4.32;;;3.20;;
83278;SDS011;73398;51.844;10.790;2024-01-07T05:27:34;6.20;;;3.85;;
83278;SDS011;73398;51.844;10.790;2024-01-07T05:29:59;4.38;;;3.13;;
83278;SDS011;73398;51.844;10.790;2024-01-07T05:32:25;3.97;;;3.00;;
83278;SDS011;73398;51.844;10.790;2024-01-07T05:34:51;4.18;;;3.05;;
83278;SDS011;73398;51.844;10.790;2024-01-07T05:37:17;5.75;;;3.85;;
83278;SDS011;73398;51.844;10.790;2024-01-07T05:39:43;4.07;;;2.78;;
83278;SDS011;73398;51.844;10.790;2024-01-07T05:42:09;5.50;;;3.22;;
83278;SDS011;73398;51.844;10.790;2024-01-07T05:44:35;3.97;;;2.70;;
83278;SDS011;73398;51.844;10.790;2024-01-07T05:47:01;3.85;;;2.42;;
83278;SDS011;73398;51.844;10.790;2024-01-07T05:49:27;3.65;;;2.63;;
83278;SDS011;73398;51.844;10.790;2024-01-07T05:51:53;3.72;;;2.45;;
83278;SDS011;73398;51.844;10.790;2024-01-07T05:54:19;3.25;;;2.33;;
83278;SDS011;73398;51.844;10.790;2024-01-07T05:56:45;3.72;;;2.50;;
83278;SDS011;73398;51.844;10.790;2024-01-07T05:59:11;4.18;;;2.40;;
83278;SDS011;73398;51.844;10.790;2024-01-07T06:01:37;4.88;;;2.22;;
83278;SDS011;73398;51.844;10.790;2024-01-07T06:04:03;4.20;;;2.65;;
83278;SDS011;73398;51.844;10.790;2024-01-07T06:06:29;2.60;;;2.33;;
83278;SDS011;73398;51.844;10.790;2024-01-07T06:08:55;3.72;;;2.60;;
83278;SDS011;73398;51.844;10.790;2024-01-07T06:11:21;3.03;;;2.42;;
83278;SDS011;73398;51.844;10.790;2024-01-07T06:13:47;4.00;;;2.17;;
83278;SDS011;73398;51.844;10.790;2024-01-07T06:16:13;4.50;;;2.50;;
83278;SDS011;73398;51.844;10.790;2024-01-07T06:18:39;4.18;;;3.00;;
83278;SDS011;73398;51.844;10.790;2024-01-07T06:21:05;4.20;;;2.50;;
83278;SDS011;73398;51.844;10.790;2024-01-07T06:23:34;4.43;;;2.47;;
83278;SDS011;73398;51.844;10.790;2024-01-07T06:26:02;3.85;;;2.63;;
83278;SDS011;73398;51.844;10.790;2024-01-07T06:28:28;4.03;;;2.50;;
83278;SDS011;73398;51.844;10.790;2024-01-07T06:30:54;3.30;;;2.53;;
83278;SDS011;73398;51.844;10.790;2024-01-07T06:33:20;2.92;;;2.40;;
83278;SDS011;73398;51.844;10.790;2024-01-07T06:35:46;3.17;;;2.30;;
83278;SDS011;73398;51.844;10.790;2024-01-07T06:38:12;3.40;;;2.63;;
83278;SDS011;73398;51.844;10.790;2024-01-07T06:40:39;3.42;;;2.42;;
83278;SDS011;73398;51.844;10.790;2024-01-07T06:43:05;3.72;;;2.58;;
83278;SDS011;73398;51.844;10.790;2024-01-07T06:45:31;3.22;;;2.67;;
83278;SDS011;73398;51.844;10.790;2024-01-07T06:47:57;3.92;;;2.47;;
83278;SDS011;73398;51.844;10.790;2024-01-07T06:50:23;2.90;;;2.33;;
83278;SDS011;73398;51.844;10.790;2024-01-07T06:52:49;5.05;;;2.85;;
83278;SDS011;73398;51.844;10.790;2024-01-07T06:55:15;4.05;;;2.45;;
83278;SDS011;73398;51.844;10.790;2024-01-07T06:57:41;3.85;;;2.30;;
83278;SDS011;73398;51.844;10.790;2024-01-07T07:00:07;3.88;;;2.67;;
83278;SDS011;73398;51.844;10.790;2024-01-07T07:02:33;5.35;;;2.58;;
83278;SDS011;73398;51.844;10.790;2024-01-07T07:04:59;5.35;;;2.83;;
83278;SDS011;73398;51.844;10.790;2024-01-07T07:07:25;4.68;;;2.50;;
83278;SDS011;73398;51.844;10.790;2024-01-07T07:09:51;4.20;;;2.58;;
83278;SDS011;73398;51.844;10.790;2024-01-07T07:12:17;2.40;;;2.10;;
83278;SDS011;73398;51.844;10.790;2024-01-07T07:14:43;3.78;;;2.97;;
83278;SDS011;73398;51.844;10.790;2024-01-07T07:17:09;5.03;;;2.83;;
83278;SDS011;73398;51.844;10.790;2024-01-07T07:19:35;3.40;;;2.40;;
83278;SDS011;73398;51.844;10.790;2024-01-07T07:22:01;3.80;;;2.92;;
83278;SDS011;73398;51.844;10.790;2024-01-07T07:24:27;6.97;;;2.80;;
83278;SDS011;73398;51.844;10.790;2024-01-07T07:26:53;4.00;;;2.40;;
83278;SDS011;73398;51.844;10.790;2024-01-07T07:29:19;3.83;;;2.30;;
83278;SDS011;73398;51.844;10.790;2024-01-07T07:31:45;3.42;;;2.33;;
83278;SDS011;73398;51.844;10.790;2024-01-07T07:34:11;3.70;;;2.15;;
83278;SDS011;73398;51.844;10.790;2024-01-07T07:36:37;3.30;;;2.63;;
83278;SDS011;73398;51.844;10.790;2024-01-07T07:39:05;4.55;;;2.25;;
83278;SDS011;73398;51.844;10.790;2024-01-07T07:41:31;4.70;;;3.05;;
83278;SDS011;73398;51.844;10.790;2024-01-07T07:43:57;3.80;;;2.88;;
83278;SDS011;73398;51.844;10.790;2024-01-07T07:46:23;5.78;;;3.58;;
83278;SDS011;73398;51.844;10.790;2024-01-07T07:48:49;4.93;;;2.80;;
83278;SDS011;73398;51.844;10.790;2024-01-07T07:51:15;4.25;;;2.63;;
83278;SDS011;73398;51.844;10.790;2024-01-07T07:53:41;3.45;;;2.45;;
83278;SDS011;73398;51.844;10.790;2024-01-07T07:56:07;4.10;;;2.83;;
83278;SDS011;73398;51.844;10.790;2024-01-07T07:58:33;3.35;;;2.50;;
83278;SDS011;73398;51.844;10.790;2024-01-07T08:00:59;3.00;;;2.20;;
83278;SDS011;73398;51.844;10.790;2024-01-07T08:03:25;3.05;;;2.30;;
83278;SDS011;73398;51.844;10.790;2024-01-07T08:05:52;3.33;;;2.38;;
83278;SDS011;73398;51.844;10.790;2024-01-07T08:08:17;3.60;;;2.10;;
83278;SDS011;73398;51.844;10.790;2024-01-07T08:10:43;3.85;;;2.05;;
83278;SDS011;73398;51.844;10.790;2024-01-07T08:13:09;3.08;;;2.28;;
83278;SDS011;73398;51.844;10.790;2024-01-07T08:15:35;4.45;;;3.20;;
83278;SDS011;73398;51.844;10.790;2024-01-07T08:18:02;4.20;;;2.50;;
83278;SDS011;73398;51.844;10.790;2024-01-07T08:20:28;2.85;;;2.28;;
83278;SDS011;73398;51.844;10.790;2024-01-07T08:22:54;3.15;;;2.47;;
83278;SDS011;73398;51.844;10.790;2024-01-07T08:25:20;2.20;;;2.00;;
83278;SDS011;73398;51.844;10.790;2024-01-07T08:27:47;5.18;;;3.85;;
83278;SDS011;73398;51.844;10.790;2024-01-07T08:30:13;6.05;;;3.60;;
83278;SDS011;73398;51.844;10.790;2024-01-07T08:32:40;2.72;;;2.33;;
83278;SDS011;73398;51.844;10.790;2024-01-07T08:35:06;3.17;;;2.20;;
83278;SDS011;73398;51.844;10.790;2024-01-07T08:37:32;3.78;;;2.40;;
83278;SDS011;73398;51.844;10.790;2024-01-07T08:39:58;4.70;;;2.38;;
83278;SDS011;73398;51.844;10.790;2024-01-07T08:42:24;3.15;;;2.50;;
83278;SDS011;73398;51.844;10.790;2024-01-07T08:44:50;5.20;;;3.00;;
83278;SDS011;73398;51.844;10.790;2024-01-07T08:47:16;4.32;;;3.05;;
83278;SDS011;73398;51.844;10.790;2024-01-07T08:49:42;5.55;;;3.05;;
83278;SDS011;73398;51.844;10.790;2024-01-07T08:52:08;4.70;;;2.78;;
83278;SDS011;73398;51.844;10.790;2024-01-07T08:54:34;4.97;;;3.13;;
83278;SDS011;73398;51.844;10.790;2024-01-07T08:57:00;7.18;;;3.20;;
83278;SDS011;73398;51.844;10.790;2024-01-07T08:59:26;6.05;;;2.70;;
83278;SDS011;73398;51.844;10.790;2024-01-07T09:01:52;4.38;;;3.03;;
83278;SDS011;73398;51.844;10.790;2024-01-07T09:04:18;3.25;;;2.65;;
83278;SDS011;73398;51.844;10.790;2024-01-07T09:06:44;6.07;;;2.88;;
83278;SDS011;73398;51.844;10.790;2024-01-07T09:09:10;5.50;;;2.83;;
83278;SDS011;73398;51.844;10.790;2024-01-07T09:11:36;5.00;;;2.78;;
83278;SDS011;73398;51.844;10.790;2024-01-07T09:14:02;5.95;;;2.70;;
83278;SDS011;73398;51.844;10.790;2024-01-07T09:16:28;3.88;;;2.63;;
83278;SDS011;73398;51.844;10.790;2024-01-07T09:18:54;3.53;;;2.60;;
83278;SDS011;73398;51.844;10.790;2024-01-07T09:21:20;3.28;;;2.47;;
83278;SDS011;73398;51.844;10.790;2024-01-07T09:23:48;3.53;;;2.63;;
83278;SDS011;73398;51.844;10.790;2024-01-07T09:26:14;3.65;;;2.63;;
83278;SDS011;73398;51.844;10.790;2024-01-07T09:28:39;4.68;;;3.08;;
83278;SDS011;73398;51.844;10.790;2024-01-07T09:31:07;5.43;;;2.67;;
83278;SDS011;73398;51.844;10.790;2024-01-07T09:33:33;2.72;;;2.22;;
83278;SDS011;73398;51.844;10.790;2024-01-07T09:35:59;3.15;;;2.33;;
83278;SDS011;73398;51.844;10.790;2024-01-07T09:38:25;3.92;;;2.45;;
83278;SDS011;73398;51.844;10.790;2024-01-07T09:40:51;5.70;;;2.65;;
83278;SDS011;73398;51.844;10.790;2024-01-07T09:43:18;4.35;;;3.00;;
83278;SDS011;73398;51.844;10.790;2024-01-07T09:45:46;3.85;;;2.90;;
83278;SDS011;73398;51.844;10.790;2024-01-07T09:48:15;3.63;;;2.50;;
83278;SDS011;73398;51.844;10.790;2024-01-07T09:50:41;4.60;;;2.95;;
83278;SDS011;73398;51.844;10.790;2024-01-07T09:53:07;5.13;;;2.80;;
83278;SDS011;73398;51.844;10.790;2024-01-07T09:55:40;4.30;;;3.05;;
83278;SDS011;73398;51.844;10.790;2024-01-07T09:58:09;3.88;;;2.72;;
83278;SDS011;73398;51.844;10.790;2024-01-07T10:00:35;6.30;;;3.03;;
83278;SDS011;73398;51.844;10.790;2024-01-07T10:03:02;5.63;;;3.20;;
83278;SDS011;73398;51.844;10.790;2024-01-07T10:05:28;10.18;;;3.30;;
83278;SDS011;73398;51.844;10.790;2024-01-07T10:07:54;13.18;;;4.63;;
83278;SDS011;73398;51.844;10.790;2024-01-07T10:10:22;14.18;;;4.75;;
83278;SDS011;73398;51.844;10.790;2024-01-07T10:12:48;4.18;;;2.90;;
83278;SDS011;73398;51.844;10.790;2024-01-07T10:15:14;4.90;;;3.17;;
83278;SDS011;73398;51.844;10.790;2024-01-07T10:17:41;4.45;;;3.05;;
83278;SDS011;73398;51.844;10.790;2024-01-07T10:20:07;3.70;;;2.83;;
83278;SDS011;73398;51.844;10.790;2024-01-07T10:22:37;6.15;;;3.50;;
83278;SDS011;73398;51.844;10.790;2024-01-07T10:25:04;4.38;;;2.78;;
83278;SDS011;73398;51.844;10.790;2024-01-07T10:27:33;3.20;;;2.60;;
83278;SDS011;73398;51.844;10.790;2024-01-07T10:30:00;5.57;;;3.35;;
83278;SDS011;73398;51.844;10.790;2024-01-07T10:32:25;3.70;;;2.38;;
83278;SDS011;73398;51.844;10.790;2024-01-07T10:34:52;4.05;;;2.55;;
83278;SDS011;73398;51.844;10.790;2024-01-07T10:37:22;3.95;;;2.85;;
83278;SDS011;73398;51.844;10.790;2024-01-07T10:39:48;3.47;;;2.72;;
83278;SDS011;73398;51.844;10.790;2024-01-07T10:42:14;4.35;;;2.80;;
83278;SDS011;73398;51.844;10.790;2024-01-07T10:44:42;3.08;;;2.72;;
83278;SDS011;73398;51.844;10.790;2024-01-07T10:47:07;3.92;;;2.53;;
83278;SDS011;73398;51.844;10.790;2024-01-07T10:49:36;3.03;;;2.70;;
83278;SDS011;73398;51.844;10.790;2024-01-07T10:52:03;4.57;;;2.75;;
83278;SDS011;73398;51.844;10.790;2024-01-07T10:54:29;4.25;;;2.80;;
83278;SDS011;73398;51.844;10.790;2024-01-07T10:56:59;3.38;;;2.53;;
83278;SDS011;73398;51.844;10.790;2024-01-07T10:59:30;5.53;;;3.15;;
83278;SDS011;73398;51.844;10.790;2024-01-07T11:01:57;3.92;;;2.60;;
83278;SDS011;73398;51.844;10.790;2024-01-07T11:04:26;4.60;;;2.67;;
83278;SDS011;73398;51.844;10.790;2024-01-07T11:07:04;3.95;;;2.55;;
83278;SDS011;73398;51.844;10.790;2024-01-07T11:09:44;2.97;;;2.60;;
83278;SDS011;73398;51.844;10.790;2024-01-07T11:12:12;2.30;;;2.10;;
83278;SDS011;73398;51.844;10.790;2024-01-07T11:14:42;3.13;;;2.33;;
83278;SDS011;73398;51.844;10.790;2024-01-07T11:17:22;2.85;;;2.47;;
83278;SDS011;73398;51.844;10.790;2024-01-07T11:20:06;3.83;;;2.33;;
83278;SDS011;73398;51.844;10.790;2024-01-07T11:22:35;4.30;;;2.72;;
83278;SDS011;73398;51.844;10.790;2024-01-07T11:25:01;3.58;;;2.70;;
83278;SDS011;73398;51.844;10.790;2024-01-07T11:27:31;4.28;;;2.90;;
83278;SDS011;73398;51.844;10.790;2024-01-07T11:29:58;4.65;;;2.28;;
83278;SDS011;73398;51.844;10.790;2024-01-07T11:32:24;4.82;;;3.13;;
83278;SDS011;73398;51.844;10.790;2024-01-07T11:34:52;4.80;;;3.13;;
83278;SDS011;73398;51.844;10.790;2024-01-07T11:37:18;3.85;;;2.70;;
83278;SDS011;73398;51.844;10.790;2024-01-07T11:39:45;5.68;;;3.50;;
83278;SDS011;73398;51.844;10.790;2024-01-07T11:42:11;5.72;;;3.40;;
83278;SDS011;73398;51.844;10.790;2024-01-07T11:44:37;5.47;;;3.72;;
83278;SDS011;73398;51.844;10.790;2024-01-07T11:47:04;5.25;;;3.75;;
83278;SDS011;73398;51.844;10.790;2024-01-07T11:49:31;5.93;;;3.90;;
83278;SDS011;73398;51.844;10.790;2024-01-07T11:51:57;4.93;;;3.65;;
83278;SDS011;73398;51.844;10.790;2024-01-07T11:54:23;4.38;;;3.45;;
83278;SDS011;73398;51.844;10.790;2024-01-07T11:56:49;5.10;;;3.85;;
83278;SDS011;73398;51.844;10.790;2024-01-07T11:59:15;5.45;;;3.50;;
83278;SDS011;73398;51.844;10.790;2024-01-07T12:01:41;6.28;;;4.03;;
83278;SDS011;73398;51.844;10.790;2024-01-07T12:04:07;6.38;;;3.55;;
83278;SDS011;73398;51.844;10.790;2024-01-07T12:06:34;5.97;;;3.85;;
83278;SDS011;73398;51.844;10.790;2024-01-07T12:09:00;6.03;;;3.72;;
83278;SDS011;73398;51.844;10.790;2024-01-07T12:11:26;5.70;;;3.88;;
83278;SDS011;73398;51.844;10.790;2024-01-07T12:13:52;5.43;;;3.40;;
83278;SDS011;73398;51.844;10.790;2024-01-07T12:16:19;6.18;;;3.25;;
83278;SDS011;73398;51.844;10.790;2024-01-07T12:18:45;6.60;;;3.25;;
83278;SDS011;73398;51.844;10.790;2024-01-07T12:21:13;6.03;;;3.15;;
83278;SDS011;73398;51.844;10.790;2024-01-07T12:23:47;5.10;;;3.53;;
83278;SDS011;73398;51.844;10.790;2024-01-07T12:26:14;5.20;;;3.03;;
83278;SDS011;73398;51.844;10.790;2024-01-07T12:28:40;6.18;;;3.80;;
83278;SDS011;73398;51.844;10.790;2024-01-07T12:31:06;7.07;;;3.85;;
83278;SDS011;73398;51.844;10.790;2024-01-07T12:33:33;4.55;;;3.45;;
83278;SDS011;73398;51.844;10.790;2024-01-07T12:35:59;4.95;;;3.15;;
83278;SDS011;73398;51.844;10.790;2024-01-07T12:38:25;6.03;;;3.10;;
83278;SDS011;73398;51.844;10.790;2024-01-07T12:40:52;5.43;;;3.30;;
83278;SDS011;73398;51.844;10.790;2024-01-07T12:43:18;3.88;;;3.17;;
83278;SDS011;73398;51.844;10.790;2024-01-07T12:45:44;4.85;;;3.42;;
83278;SDS011;73398;51.844;10.790;2024-01-07T12:48:11;4.68;;;3.35;;
83278;SDS011;73398;51.844;10.790;2024-01-07T12:50:37;4.78;;;3.45;;
83278;SDS011;73398;51.844;10.790;2024-01-07T12:53:03;6.72;;;3.97;;
83278;SDS011;73398;51.844;10.790;2024-01-07T12:55:30;7.13;;;4.20;;
83278;SDS011;73398;51.844;10.790;2024-01-07T12:57:56;4.85;;;3.80;;
83278;SDS011;73398;51.844;10.790;2024-01-07T13:00:23;5.32;;;3.50;;
83278;SDS011;73398;51.844;10.790;2024-01-07T13:02:49;6.32;;;3.67;;
83278;SDS011;73398;51.844;10.790;2024-01-07T13:05:16;6.70;;;3.85;;
83278;SDS011;73398;51.844;10.790;2024-01-07T13:07:42;4.85;;;3.35;;
83278;SDS011;73398;51.844;10.790;2024-01-07T13:10:08;5.22;;;3.60;;
83278;SDS011;73398;51.844;10.790;2024-01-07T13:12:37;8.25;;;4.00;;
83278;SDS011;73398;51.844;10.790;2024-01-07T13:15:03;6.20;;;4.57;;
83278;SDS011;73398;51.844;10.790;2024-01-07T13:17:29;5.10;;;3.28;;
83278;SDS011;73398;51.844;10.790;2024-01-07T13:19:57;6.60;;;3.60;;
83278;SDS011;73398;51.844;10.790;2024-01-07T13:22:23;5.78;;;3.58;;
83278;SDS011;73398;51.844;10.790;2024-01-07T13:24:49;6.85;;;4.53;;
83278;SDS011;73398;51.844;10.790;2024-01-07T13:27:15;6.05;;;3.88;;
83278;SDS011;73398;51.844;10.790;2024-01-07T13:29:43;5.60;;;4.07;;
83278;SDS011;73398;51.844;10.790;2024-01-07T13:32:12;5.20;;;3.78;;
83278;SDS011;73398;51.844;10.790;2024-01-07T13:34:40;5.53;;;4.15;;
83278;SDS011;73398;51.844;10.790;2024-01-07T13:37:05;7.78;;;3.80;;
83278;SDS011;73398;51.844;10.790;2024-01-07T13:39:31;5.22;;;3.28;;
83278;SDS011;73398;51.844;10.790;2024-01-07T13:41:57;5.20;;;3.38;;
83278;SDS011;73398;51.844;10.790;2024-01-07T13:44:23;5.35;;;3.58;;
83278;SDS011;73398;51.844;10.790;2024-01-07T13:46:49;5.20;;;3.88;;
83278;SDS011;73398;51.844;10.790;2024-01-07T13:49:17;6.22;;;4.00;;
83278;SDS011;73398;51.844;10.790;2024-01-07T13:51:43;5.95;;;3.53;;
83278;SDS011;73398;51.844;10.790;2024-01-07T13:54:09;5.93;;;3.47;;
83278;SDS011;73398;51.844;10.790;2024-01-07T13:56:42;5.85;;;3.40;;
83278;SDS011;73398;51.844;10.790;2024-01-07T13:59:09;4.93;;;3.05;;
83278;SDS011;73398;51.844;10.790;2024-01-07T14:01:35;4.60;;;3.47;;
83278;SDS011;73398;51.844;10.790;2024-01-07T14:04:01;4.95;;;2.85;;
83278;SDS011;73398;51.844;10.790;2024-01-07T14:06:27;4.43;;;2.90;;
83278;SDS011;73398;51.844;10.790;2024-01-07T14:08:53;6.68;;;3.83;;
83278;SDS011;73398;51.844;10.790;2024-01-07T14:11:19;5.03;;;2.90;;
83278;SDS011;73398;51.844;10.790;2024-01-07T14:13:45;5.10;;;3.40;;
83278;SDS011;73398;51.844;10.790;2024-01-07T14:16:12;6.07;;;3.38;;
83278;SDS011;73398;51.844;10.790;2024-01-07T14:18:38;5.38;;;3.75;;
83278;SDS011;73398;51.844;10.790;2024-01-07T14:21:04;4.43;;;2.80;;
83278;SDS011;73398;51.844;10.790;2024-01-07T14:23:30;5.10;;;3.55;;
83278;SDS011;73398;51.844;10.790;2024-01-07T14:25:57;9.05;;;3.92;;